createdAt,value
2022-09-11T07:36:52.189Z,100951.78
2022-09-11T07:39:31.843Z,100945.28
2022-09-11T07:42:19.483Z,100942.06
2022-09-11T07:44:57.218Z,100937.25
2022-09-11T07:47:34.991Z,100947.41
2022-09-11T07:50:13.338Z,100943.16
2022-09-11T07:52:53.917Z,100942.28
2022-09-11T07:55:31.728Z,100939.00
2022-09-11T07:58:09.124Z,100945.50
2022-09-11T08:00:47.869Z,100937.41
2022-09-11T08:03:29.052Z,100936.66
2022-09-11T08:06:10.561Z,100938.59
2022-09-11T08:08:50.444Z,100929.69
2022-09-11T08:11:30.425Z,100937.69
2022-09-11T08:14:07.957Z,100938.94
2022-09-11T08:16:45.643Z,100942.72
2022-09-11T08:19:25.333Z,100943.97
2022-09-11T08:22:06.073Z,100943.66
2022-09-11T08:24:51.483Z,100936.41
2022-09-11T08:27:29.894Z,100938.19
2022-09-11T08:30:07.093Z,100933.91
2022-09-11T08:32:44.219Z,100929.91
2022-09-11T08:35:21.106Z,100931.81
2022-09-11T08:37:59.092Z,100934.34
2022-09-11T08:40:41.823Z,100936.44
2022-09-11T08:43:26.946Z,100941.50
2022-09-11T08:46:11.244Z,100944.19
2022-09-11T08:48:59.851Z,100943.16
2022-09-11T08:51:37.113Z,100947.56
2022-09-11T08:54:30.757Z,100939.03
2022-09-11T08:57:23.891Z,100938.75
2022-09-11T09:00:14.811Z,100950.31
2022-09-11T09:03:51.799Z,100938.94
2022-09-11T09:06:57.451Z,100940.03
2022-09-11T09:09:47.203Z,100944.44
2022-09-11T09:12:39.719Z,100965.34
2022-09-11T09:15:34.743Z,100951.16
2022-09-11T09:18:19.121Z,100948.00
2022-09-11T09:21:09.548Z,100956.63
2022-09-11T09:23:51.722Z,100957.06
2022-09-11T09:26:38.693Z,100954.13
2022-09-11T09:29:25.493Z,100947.16
2022-09-11T09:32:08.150Z,100955.56
2022-09-11T09:34:48.647Z,100953.94
2022-09-11T09:37:27.398Z,100947.63
2022-09-11T09:40:10.485Z,100950.06
2022-09-11T09:43:25.324Z,100963.06
2022-09-11T09:46:19.806Z,100957.00
2022-09-11T09:48:57.128Z,100968.78
2022-09-11T09:51:35.737Z,100968.94
2022-09-11T09:54:19.246Z,100965.50
2022-09-11T09:57:03.883Z,100960.16
2022-09-11T09:59:46.456Z,100955.31
2022-09-11T10:02:43.275Z,100969.19
2022-09-11T10:05:29.029Z,100975.09
2022-09-11T10:08:08.856Z,100966.94
2022-09-11T10:10:45.718Z,100974.97
2022-09-11T10:13:26.196Z,100972.91
2022-09-11T10:16:05.535Z,100982.91
2022-09-11T10:18:47.546Z,100981.81
2022-09-11T10:21:33.907Z,100975.75
2022-09-11T10:24:26.587Z,100974.25
2022-09-11T10:27:03.384Z,100981.75
2022-09-11T10:29:40.995Z,100976.91
2022-09-11T10:32:21.127Z,100983.72
2022-09-11T10:35:02.327Z,100979.34
2022-09-11T10:37:39.443Z,100972.22
2022-09-11T10:40:25.689Z,100971.25
2022-09-11T10:43:02.677Z,100976.69
2022-09-11T10:45:40.118Z,100978.59
2022-09-11T10:48:25.065Z,100977.06
2022-09-11T10:51:14.306Z,100984.13
2022-09-11T10:54:08.192Z,100985.47
2022-09-11T10:57:01.519Z,100984.41
2022-09-11T10:59:46.402Z,100990.81
2022-09-11T11:02:30.723Z,100989.13
2022-09-11T11:05:11.848Z,100987.69
2022-09-11T11:08:17.838Z,100983.06
2022-09-11T11:11:15.778Z,100988.91
2022-09-11T11:14:14.483Z,100990.41
2022-09-11T11:17:03.074Z,100980.75
2022-09-11T11:20:14.175Z,100982.78
2022-09-11T11:23:39.369Z,100981.88
2022-09-11T11:26:37.748Z,100980.91
2022-09-11T11:29:46.347Z,100978.84
2022-09-11T11:32:50.146Z,100978.03
2022-09-11T11:35:34.134Z,100988.31
2022-09-11T11:38:23.386Z,100985.44
2022-09-11T11:41:07.628Z,100985.50
2022-09-11T11:43:48.584Z,100991.56
2022-09-11T11:46:30.637Z,100983.69
2022-09-11T11:49:15.354Z,100980.53
2022-09-11T11:51:59.107Z,100984.38
2022-09-11T11:54:47.969Z,100982.53
2022-09-11T11:57:29.014Z,100982.72
2022-09-11T12:00:12.810Z,100989.44
2022-09-11T12:02:57.937Z,100986.06
2022-09-11T12:05:37.858Z,100982.09
2022-09-11T12:08:17.517Z,100983.88
2022-09-11T12:11:05.344Z,100977.78
2022-09-11T12:13:47.762Z,100988.84
2022-09-11T12:16:29.228Z,100985.44
2022-09-11T12:19:20.213Z,100988.38
2022-09-11T12:22:16.325Z,100989.56
2022-09-11T12:24:59.657Z,100987.13
2022-09-11T12:28:12.893Z,100987.53
2022-09-11T12:31:03.364Z,100982.31
2022-09-11T12:34:00.333Z,100978.31
2022-09-11T12:36:54.848Z,100984.41
2022-09-11T12:39:36.545Z,100982.00
2022-09-11T12:42:50.754Z,100983.97
2022-09-11T12:45:44.095Z,100989.84
2022-09-11T12:48:26.293Z,100981.88
2022-09-11T12:51:04.054Z,100986.16
2022-09-11T12:53:46.752Z,100986.75
2022-09-11T12:56:26.751Z,100993.34
2022-09-11T12:59:08.034Z,100998.25
2022-09-11T13:01:48.991Z,101000.44
2022-09-11T13:04:31.424Z,100990.53
2022-09-11T13:07:11.082Z,101004.84
2022-09-11T13:09:52.692Z,100998.94
2022-09-11T13:13:06.564Z,101002.25
2022-09-11T13:15:45.928Z,100996.66
2022-09-11T13:18:35.922Z,100999.94
2022-09-11T13:21:26.364Z,100996.78
2022-09-11T13:24:07.081Z,101000.88
2022-09-11T13:26:45.773Z,101007.47
2022-09-11T13:29:27.125Z,101005.53
2022-09-11T13:32:10.579Z,101003.66
2022-09-11T13:35:02.257Z,100994.94
2022-09-11T13:37:43.868Z,101008.66
2022-09-11T13:40:27.481Z,101012.09
2022-09-11T13:43:06.965Z,100999.63
2022-09-11T13:45:44.879Z,100999.97
2022-09-11T13:48:26.082Z,101000.94
2022-09-11T13:51:07.003Z,101002.28
2022-09-11T13:53:45.978Z,100995.53
2022-09-11T13:56:47.453Z,100992.94
2022-09-11T13:59:49.686Z,100987.00
2022-09-11T14:02:50.427Z,100999.25
2022-09-11T14:05:31.803Z,101002.69
2022-09-11T14:08:25.844Z,100999.25
2022-09-11T14:11:10.988Z,101003.31
2022-09-11T14:13:56.633Z,101007.66
2022-09-11T14:16:38.631Z,101007.63
2022-09-11T14:19:21.746Z,101014.75
2022-09-11T14:21:59.012Z,101001.09
2022-09-11T14:24:41.925Z,101017.50
2022-09-11T14:27:41.504Z,101016.50
2022-09-11T14:30:38.569Z,101014.84
2022-09-11T14:33:29.583Z,101025.34
2022-09-11T14:36:14.797Z,101021.16
2022-09-11T14:38:53.723Z,101012.53
2022-09-11T14:41:33.683Z,101016.19
2022-09-11T14:44:13.077Z,101020.59
2022-09-11T14:46:50.531Z,101011.00
2022-09-11T14:49:27.931Z,101011.84
2022-09-11T14:52:05.581Z,101018.56
2022-09-11T14:54:43.023Z,101021.91
2022-09-11T14:57:26.671Z,101021.22
2022-09-11T15:00:03.453Z,101015.44
2022-09-11T15:02:41.065Z,101013.78
2022-09-11T15:05:23.303Z,101023.25
2022-09-11T15:08:01.964Z,101027.66
2022-09-11T15:10:40.398Z,101025.66
2022-09-11T15:13:22.990Z,101030.06
2022-09-11T15:16:02.795Z,101032.44
2022-09-11T15:18:42.404Z,101029.78
2022-09-11T15:21:25.632Z,101027.47
2022-09-11T15:24:13.945Z,101024.78
2022-09-11T15:27:00.422Z,101035.28
2022-09-11T15:29:48.883Z,101034.78
2022-09-11T15:32:32.507Z,101044.03
2022-09-11T15:35:17.695Z,101034.28
2022-09-11T15:37:56.494Z,101040.19
2022-09-11T15:40:33.684Z,101038.50
2022-09-11T15:43:10.652Z,101039.66
2022-09-11T15:45:50.689Z,101038.66
2022-09-11T15:48:28.775Z,101038.47
2022-09-11T15:51:11.453Z,101031.06
2022-09-11T15:53:52.855Z,101039.19
2022-09-11T15:56:36.779Z,101048.22
2022-09-11T15:59:15.552Z,101047.59
2022-09-11T16:01:55.608Z,101040.00
2022-09-11T16:04:35.586Z,101049.03
2022-09-11T16:07:13.227Z,101042.72
2022-09-11T16:09:50.296Z,101041.38
2022-09-11T16:12:27.518Z,101050.75
2022-09-11T16:15:04.877Z,101052.25
2022-09-11T16:17:45.555Z,101064.75
2022-09-11T16:20:22.737Z,101052.97
2022-09-11T16:22:59.985Z,101060.44
2022-09-11T16:25:42.737Z,101053.31
2022-09-11T16:28:19.967Z,101054.88
2022-09-11T16:30:57.207Z,101058.47
2022-09-11T16:33:44.323Z,101049.84
2022-09-11T16:36:23.682Z,101049.09
2022-09-11T16:39:02.179Z,101051.97
2022-09-11T16:41:40.919Z,101054.59
2022-09-11T16:44:20.216Z,101045.81
2022-09-11T16:46:57.456Z,101053.94
2022-09-11T16:50:05.285Z,101048.31
2022-09-11T16:52:35.043Z,101044.84
2022-09-11T16:55:15.197Z,101040.78
2022-09-11T16:57:53.375Z,101047.19
2022-09-11T17:00:32.534Z,101054.81
2022-09-11T17:03:09.425Z,101056.28
2022-09-11T17:05:54.469Z,101060.22
2022-09-11T17:08:32.193Z,101052.38
2022-09-11T17:11:14.115Z,101059.00
2022-09-11T17:13:52.305Z,101056.88
2022-09-11T17:16:33.269Z,101053.78
2022-09-11T17:19:11.140Z,101062.44
2022-09-11T17:21:51.411Z,101063.88
2022-09-11T17:24:28.551Z,101064.31
2022-09-11T17:27:06.192Z,101064.03
2022-09-11T17:29:44.770Z,101061.63
2022-09-11T17:32:29.520Z,101067.69
2022-09-11T17:35:06.963Z,101067.72
2022-09-11T17:37:48.489Z,101060.38
2022-09-11T17:40:25.782Z,101063.75
2022-09-11T17:43:03.170Z,101064.06
2022-09-11T17:45:40.341Z,101059.97
2022-09-11T17:48:17.922Z,101055.31
2022-09-11T17:51:02.754Z,101063.47
2022-09-11T17:53:45.154Z,101061.06
2022-09-11T17:56:25.319Z,101063.75
2022-09-11T17:59:04.392Z,101062.59
2022-09-11T18:01:41.624Z,101051.47
2022-09-11T18:04:18.871Z,101059.78
2022-09-11T18:06:55.844Z,101056.69
2022-09-11T18:09:35.568Z,101060.47
2022-09-11T18:12:12.444Z,101065.94
2022-09-11T18:14:49.713Z,101054.69
2022-09-11T18:17:26.712Z,101053.25
2022-09-11T18:20:05.343Z,101056.06
2022-09-11T18:22:42.844Z,101059.72
2022-09-11T18:25:25.785Z,101060.44
2022-09-11T18:28:04.383Z,101060.81
2022-09-11T18:30:43.685Z,101073.50
2022-09-11T18:33:20.554Z,101070.38
2022-09-11T18:36:01.614Z,101063.63
2022-09-11T18:38:43.420Z,101063.88
2022-09-11T18:41:29.187Z,101071.19
2022-09-11T18:44:12.626Z,101068.66
2022-09-11T18:46:55.658Z,101066.84
2022-09-11T18:49:35.474Z,101067.56
2022-09-11T18:52:15.470Z,101066.84
2022-09-11T18:54:52.919Z,101064.44
2022-09-11T18:57:38.616Z,101062.22
2022-09-11T19:00:21.134Z,101063.06
2022-09-11T19:03:00.747Z,101071.19
2022-09-11T19:05:37.653Z,101072.91
2022-09-11T19:08:15.144Z,101065.00
2022-09-11T19:10:55.844Z,101058.81
2022-09-11T19:13:39.186Z,101069.63
2022-09-11T19:16:20.992Z,101056.53
2022-09-11T19:19:00.240Z,101067.09
2022-09-11T19:21:41.498Z,101062.72
2022-09-11T19:24:19.806Z,101065.28
2022-09-11T19:26:57.190Z,101063.03
2022-09-11T19:29:37.254Z,101054.00
2022-09-11T19:32:14.599Z,101062.19
2022-09-11T19:34:51.799Z,101069.34
2022-09-11T19:37:28.963Z,101065.25
2022-09-11T19:40:07.683Z,101066.94
2022-09-11T19:42:44.671Z,101072.28
